Joan Cenac — WDD5325 — position and weather

sailwx.info

Track history (hours):
 
Tides and Currents Weather Stations Pressure Air Temp Water Temp Dewpoint Dewpoint Depression Visibility Wind Speed Wind Dir Waves Ship Positions

Joan Cenac

Owner: Caillou Island Towing Co., Inc., Houma, LA. More information available from US FCC via Universal Licensing System and Coast Guard Vessel Documentation Center.

Last reported at 2017-Sep-24 19:00 UTC. Time now 2017-Sep-24 19:26 UTC.
Position N 29°34' W 090°43'.

Length 30 m; draft 2.5 m.

Type: Towing. MMSI: 367156710.

Date/timePositionNaut miles runAvg speedWind from/ knotsBaromVisibWave heightAir tempDewpointWater temp
2017-Sep-24 19:00N 29°34' W 090°43'0 0.0
2017-Sep-24 18:30N 29°34' W 090°43'0 0.0
2017-Sep-24 18:00N 29°34' W 090°43'0 0.0
2017-Sep-24 17:30N 29°34' W 090°43'0 0.0
2017-Sep-24 17:00N 29°34' W 090°43'0 0.0
2017-Sep-24 16:31N 29°34' W 090°43'0 0.0
2017-Sep-24 16:00N 29°34' W 090°43'0 0.0
2017-Sep-24 15:31N 29°34' W 090°43'0 0.0
2017-Sep-24 15:00N 29°34' W 090°43'0 0.0
2017-Sep-24 14:31N 29°34' W 090°43'0 0.0
2017-Sep-24 14:01N 29°34' W 090°43'0 0.0
2017-Sep-24 13:31N 29°34' W 090°43'0 0.0
2017-Sep-24 13:01N 29°34' W 090°43'0 0.0
2017-Sep-24 12:31N 29°34' W 090°43'0 0.0
2017-Sep-24 12:01N 29°34' W 090°43'0 0.0
2017-Sep-24 11:31N 29°34' W 090°43'0 0.0
2017-Sep-24 11:01N 29°34' W 090°43'0 0.0
2017-Sep-24 10:31N 29°34' W 090°43'0 0.0
2017-Sep-24 10:01N 29°34' W 090°43'0 0.0
2017-Sep-24 09:30N 29°34' W 090°43'0 0.0
2017-Sep-24 09:00N 29°34' W 090°43'0 0.0
2017-Sep-24 08:31N 29°34' W 090°43'0 0.0
2017-Sep-24 08:00N 29°34' W 090°43'0 0.0
2017-Sep-24 07:31N 29°34' W 090°43'0 0.0
2017-Sep-24 07:01N 29°34' W 090°43'0 0.0
2017-Sep-24 06:31N 29°34' W 090°43'0 0.0
2017-Sep-24 06:01N 29°34' W 090°43'0 0.0
2017-Sep-24 05:31N 29°34' W 090°43'0 0.0
2017-Sep-24 05:01N 29°34' W 090°43'0 0.0
2017-Sep-24 04:31N 29°34' W 090°43'0 0.0
2017-Sep-24 04:01N 29°34' W 090°43'0 0.0
2017-Sep-24 03:31N 29°34' W 090°43'0 0.0
2017-Sep-24 03:01N 29°34' W 090°43'0 0.0
2017-Sep-24 02:30N 29°34' W 090°43'0 0.0
2017-Sep-24 02:01N 29°34' W 090°43'0 0.0
2017-Sep-24 01:31N 29°34' W 090°43'0 0.0
2017-Sep-24 01:01N 29°34' W 090°43'0 0.0
2017-Sep-24 00:31N 29°34' W 090°43'0 0.0
2017-Sep-24 00:01N 29°34' W 090°43'0 0.0
2017-Sep-23 23:30N 29°34' W 090°43'0 0.0
2017-Sep-23 23:00N 29°34' W 090°43'0 0.0
2017-Sep-23 22:31N 29°34' W 090°43'0 0.0
2017-Sep-23 22:01N 29°34' W 090°43'0 0.0
2017-Sep-23 21:30N 29°34' W 090°43'0 0.0
2017-Sep-23 21:00N 29°34' W 090°43'0 0.0
2017-Sep-23 20:30N 29°34' W 090°43'0 0.0
2017-Sep-23 20:00N 29°34' W 090°43'10 0.2
2017-Sep-21 21:15N 29°24' W 090°44'2 6.9
2017-Sep-21 21:00N 29°26' W 090°43'4 7.1
2017-Sep-21 20:30N 29°29' W 090°43'3 6.8
2017-Sep-21 20:00N 29°33' W 090°42'3 5.4
2017-Sep-21 19:30N 29°36' W 090°43'2 3.4
2017-Sep-21 19:00N 29°36' W 090°41'1 2.1
2017-Sep-21 18:30N 29°36' W 090°40'0 0.0
2017-Sep-21 18:00N 29°36' W 090°40'0 0.5
2017-Sep-21 17:30N 29°36' W 090°40'3 5.4
2017-Sep-21 17:00N 29°35' W 090°37'1 2.6
2017-Sep-21 16:30N 29°35' W 090°38'3 6.0
2017-Sep-21 16:00N 29°36' W 090°41'2 4.3
2017-Sep-21 15:30N 29°35' W 090°43'3 5.5
2017-Sep-21 15:00N 29°33' W 090°45'3 6.3
2017-Sep-21 14:30N 29°32' W 090°49'3 6.3
2017-Sep-21 14:00N 29°32' W 090°52'  
2017-Sep-18 06:03N 29°32' W 090°51'0 6.3
2017-Sep-18 05:59N 29°32' W 090°51'3 6.0
2017-Sep-18 05:31N 29°32' W 090°47'2 4.7
2017-Sep-18 05:01N 29°33' W 090°45'2 4.4
2017-Sep-18 04:30N 29°35' W 090°43'2 4.8
2017-Sep-18 04:01N 29°37' W 090°42'2 3.5
2017-Sep-18 03:30N 29°36' W 090°40'0 0.5
2017-Sep-18 03:01N 29°36' W 090°40'1 2.3
2017-Sep-18 02:30N 29°36' W 090°41'1 2.4
2017-Sep-18 02:01N 29°36' W 090°43'2 3.1
2017-Sep-18 01:31N 29°35' W 090°43'1 1.9
2017-Sep-18 01:01N 29°34' W 090°43'2 3.4
2017-Sep-18 00:30N 29°33' W 090°45'1 2.7
2017-Sep-18 00:01N 29°32' W 090°46'2 3.6
2017-Sep-17 23:30N 29°32' W 090°48'2 3.7
2017-Sep-17 23:01N 29°32' W 090°50'2 3.7
2017-Sep-17 22:27N 29°32' W 090°53'2 3.7
2017-Sep-17 21:58N 29°33' W 090°54'3 0.4
2017-Sep-17 15:31N 29°32' W 090°51'1 6.3
2017-Sep-17 15:26N 29°32' W 090°51'3 6.4
2017-Sep-17 15:01N 29°32' W 090°48'3 5.5
2017-Sep-17 14:31N 29°34' W 090°45'2 4.2
2017-Sep-17 14:01N 29°33' W 090°42'1 1.8
2017-Sep-17 13:31N 29°34' W 090°43'0 0.0
2017-Sep-17 13:00N 29°34' W 090°43'0 0.0
2017-Sep-17 12:31N 29°34' W 090°43'0 0.0
2017-Sep-17 12:01N 29°34' W 090°43'0 0.0
2017-Sep-17 11:30N 29°34' W 090°43'0 0.0
2017-Sep-17 11:00N 29°34' W 090°43'0 0.0
2017-Sep-17 10:30N 29°34' W 090°43'0 0.0
2017-Sep-17 10:00N 29°34' W 090°43'0 0.0
2017-Sep-17 09:31N 29°34' W 090°43'0 0.0
2017-Sep-17 09:01N 29°34' W 090°43'0 0.0
2017-Sep-17 08:31N 29°34' W 090°43'0 0.0
2017-Sep-17 08:00N 29°34' W 090°43'0 0.0
2017-Sep-17 07:31N 29°34' W 090°43'0 0.0
2017-Sep-17 07:01N 29°34' W 090°43'0 0.0
2017-Sep-17 06:30N 29°34' W 090°43'0 0.0
2017-Sep-17 06:01N 29°34' W 090°43'0 0.0
2017-Sep-17 05:31N 29°34' W 090°43'0 0.0
2017-Sep-17 05:00N 29°34' W 090°43'0 0.0
2017-Sep-17 04:30N 29°34' W 090°43'0 0.0
2017-Sep-17 04:01N 29°34' W 090°43'0 0.0
2017-Sep-17 03:30N 29°34' W 090°43'0 0.0
2017-Sep-17 03:00N 29°34' W 090°43'0 0.0
2017-Sep-17 02:31N 29°34' W 090°43'0 0.0
2017-Sep-17 02:01N 29°34' W 090°43'0 0.0
2017-Sep-17 01:31N 29°34' W 090°43'0 0.0
2017-Sep-17 01:00N 29°34' W 090°43'0 0.0
2017-Sep-17 00:31N 29°34' W 090°43'0 0.0
2017-Sep-17 00:01N 29°34' W 090°43'0 0.0
2017-Sep-16 23:31N 29°34' W 090°43'0 0.0
2017-Sep-16 23:00N 29°34' W 090°43'0 0.0
2017-Sep-16 22:30N 29°34' W 090°43'0 0.0
2017-Sep-16 22:00N 29°34' W 090°43'0 0.0
2017-Sep-16 21:30N 29°34' W 090°43'0 0.9
2017-Sep-16 21:00N 29°34' W 090°43'3 5.1
2017-Sep-16 20:31N 29°36' W 090°43'2 4.5
2017-Sep-16 20:01N 29°36' W 090°40'0 0.2
2017-Sep-16 19:19N 29°36' W 090°40'0 0.0
2017-Sep-16 18:57N 29°36' W 090°40'0 0.0
2017-Sep-16 18:28N 29°36' W 090°40'0 0.0
2017-Sep-16 17:50N 29°36' W 090°40'0 0.0
2017-Sep-16 17:29N 29°36' W 090°40'0 0.3
2017-Sep-16 17:01N 29°36' W 090°40'3 5.2
2017-Sep-16 16:31N 29°35' W 090°37'3 5.1
2017-Sep-16 16:00N 29°34' W 090°34'3 5.2
2017-Sep-16 15:30N 29°34' W 090°31'4 0.2
2017-Sep-15 22:27N 29°33' W 090°26'3 6.0
2017-Sep-15 22:00N 29°34' W 090°29'3 6.0
2017-Sep-15 21:30N 29°34' W 090°33'3 5.7
2017-Sep-15 21:00N 29°35' W 090°36'3 5.4
2017-Sep-15 20:29N 29°36' W 090°39'3 5.2
2017-Sep-15 20:00N 29°37' W 090°41'2 4.3
2017-Sep-15 19:30N 29°35' W 090°43'2 3.3
2017-Sep-15 19:00N 29°33' W 090°42'1 1.9
2017-Sep-15 18:30N 29°34' W 090°43'0 0.3
2017-Sep-15 18:00N 29°34' W 090°43'2 3.1
2017-Sep-15 17:30N 29°33' W 090°42'0 0.0
2017-Sep-15 17:00N 29°33' W 090°42'0 0.0
2017-Sep-15 16:30N 29°33' W 090°42'0 0.0
2017-Sep-15 16:01N 29°33' W 090°42'0 0.0
2017-Sep-15 15:31N 29°33' W 090°42'0 0.0
2017-Sep-15 15:01N 29°33' W 090°42'0 0.0
2017-Sep-15 14:31N 29°33' W 090°42'0 0.0
2017-Sep-15 14:01N 29°33' W 090°42'0 0.0
2017-Sep-15 13:30N 29°33' W 090°42'0 0.0
2017-Sep-15 13:01N 29°33' W 090°42'0 0.0
2017-Sep-15 12:30N 29°33' W 090°42'0 0.0
2017-Sep-15 12:00N 29°33' W 090°42'0 0.0
2017-Sep-15 11:30N 29°33' W 090°42'0 0.0
2017-Sep-15 11:00N 29°33' W 090°42'0 0.0
2017-Sep-15 10:30N 29°33' W 090°42'0 0.0
2017-Sep-15 10:00N 29°33' W 090°42'0 0.0
2017-Sep-15 09:30N 29°33' W 090°42'0 0.0
2017-Sep-15 09:00N 29°33' W 090°42'0 0.0
2017-Sep-15 08:30N 29°33' W 090°42'0 0.0
2017-Sep-15 08:00N 29°33' W 090°42'0 0.0
2017-Sep-15 07:30N 29°33' W 090°42'0 0.0
2017-Sep-15 07:00N 29°33' W 090°42'0 0.0
2017-Sep-15 06:30N 29°33' W 090°42'0 0.0
2017-Sep-15 06:00N 29°33' W 090°42'0 0.0
2017-Sep-15 05:30N 29°33' W 090°42'0 0.0
2017-Sep-15 05:00N 29°33' W 090°42'0 0.0
2017-Sep-15 04:30N 29°33' W 090°42'0 0.0
2017-Sep-15 04:00N 29°33' W 090°42'1 1.1
2017-Sep-15 03:31N 29°33' W 090°42'2 4.5
2017-Sep-15 03:00N 29°35' W 090°43'2 4.0
2017-Sep-15 02:30N 29°37' W 090°42'2 4.6
2017-Sep-15 02:00N 29°36' W 090°40'0 0.0
2017-Sep-15 01:30N 29°36' W 090°40'0 0.0
2017-Sep-15 01:01N 29°36' W 090°40'0 0.0
2017-Sep-15 00:30N 29°36' W 090°40'2 4.4
2017-Sep-15 00:00N 29°37' W 090°42'3 5.6
2017-Sep-14 23:30N 29°34' W 090°43'2 3.6
2017-Sep-14 23:00N 29°32' W 090°42'3 6.4
2017-Sep-14 22:30N 29°29' W 090°43'3 6.1
2017-Sep-14 22:00N 29°26' W 090°43'6 2.5
2017-Sep-14 19:31N 29°25' W 090°50'0 3.7
2017-Sep-14 19:30N 29°25' W 090°50'  
Track history (hours):
 
Tides and Currents Weather Stations Pressure Air Temp Water Temp Dewpoint Dewpoint Depression Visibility Wind Speed Wind Dir Waves Ship Positions

Joan Cenac

Owner: Caillou Island Towing Co., Inc., Houma, LA. More information available from US FCC via Universal Licensing System and Coast Guard Vessel Documentation Center.

Last reported at 2017-Sep-24 19:00 UTC. Time now 2017-Sep-24 19:26 UTC.
Position N 29°34' W 090°43'.

Length 30 m; draft 2.5 m.

Type: Towing. MMSI: 367156710.

Date/timePositionNaut miles runAvg speedWind from/ knotsBaromVisibWave heightAir tempDewpointWater temp
2017-Sep-24 19:00N 29°34' W 090°43'0 0.0
2017-Sep-24 18:30N 29°34' W 090°43'0 0.0
2017-Sep-24 18:00N 29°34' W 090°43'0 0.0
2017-Sep-24 17:30N 29°34' W 090°43'0 0.0
2017-Sep-24 17:00N 29°34' W 090°43'0 0.0
2017-Sep-24 16:31N 29°34' W 090°43'0 0.0
2017-Sep-24 16:00N 29°34' W 090°43'0 0.0
2017-Sep-24 15:31N 29°34' W 090°43'0 0.0
2017-Sep-24 15:00N 29°34' W 090°43'0 0.0
2017-Sep-24 14:31N 29°34' W 090°43'0 0.0
2017-Sep-24 14:01N 29°34' W 090°43'0 0.0
2017-Sep-24 13:31N 29°34' W 090°43'0 0.0
2017-Sep-24 13:01N 29°34' W 090°43'0 0.0
2017-Sep-24 12:31N 29°34' W 090°43'0 0.0
2017-Sep-24 12:01N 29°34' W 090°43'0 0.0
2017-Sep-24 11:31N 29°34' W 090°43'0 0.0
2017-Sep-24 11:01N 29°34' W 090°43'0 0.0
2017-Sep-24 10:31N 29°34' W 090°43'0 0.0
2017-Sep-24 10:01N 29°34' W 090°43'0 0.0
2017-Sep-24 09:30N 29°34' W 090°43'0 0.0
2017-Sep-24 09:00N 29°34' W 090°43'0 0.0
2017-Sep-24 08:31N 29°34' W 090°43'0 0.0
2017-Sep-24 08:00N 29°34' W 090°43'0 0.0
2017-Sep-24 07:31N 29°34' W 090°43'0 0.0
2017-Sep-24 07:01N 29°34' W 090°43'0 0.0
2017-Sep-24 06:31N 29°34' W 090°43'0 0.0
2017-Sep-24 06:01N 29°34' W 090°43'0 0.0
2017-Sep-24 05:31N 29°34' W 090°43'0 0.0
2017-Sep-24 05:01N 29°34' W 090°43'0 0.0
2017-Sep-24 04:31N 29°34' W 090°43'0 0.0
2017-Sep-24 04:01N 29°34' W 090°43'0 0.0
2017-Sep-24 03:31N 29°34' W 090°43'0 0.0
2017-Sep-24 03:01N 29°34' W 090°43'0 0.0
2017-Sep-24 02:30N 29°34' W 090°43'0 0.0
2017-Sep-24 02:01N 29°34' W 090°43'0 0.0
2017-Sep-24 01:31N 29°34' W 090°43'0 0.0
2017-Sep-24 01:01N 29°34' W 090°43'0 0.0
2017-Sep-24 00:31N 29°34' W 090°43'0 0.0
2017-Sep-24 00:01N 29°34' W 090°43'0 0.0
2017-Sep-23 23:30N 29°34' W 090°43'0 0.0
2017-Sep-23 23:00N 29°34' W 090°43'0 0.0
2017-Sep-23 22:31N 29°34' W 090°43'0 0.0
2017-Sep-23 22:01N 29°34' W 090°43'0 0.0
2017-Sep-23 21:30N 29°34' W 090°43'0 0.0
2017-Sep-23 21:00N 29°34' W 090°43'0 0.0
2017-Sep-23 20:30N 29°34' W 090°43'0 0.0
2017-Sep-23 20:00N 29°34' W 090°43'10 0.2
2017-Sep-21 21:15N 29°24' W 090°44'2 6.9
2017-Sep-21 21:00N 29°26' W 090°43'4 7.1
2017-Sep-21 20:30N 29°29' W 090°43'3 6.8
2017-Sep-21 20:00N 29°33' W 090°42'3 5.4
2017-Sep-21 19:30N 29°36' W 090°43'2 3.4
2017-Sep-21 19:00N 29°36' W 090°41'1 2.1
2017-Sep-21 18:30N 29°36' W 090°40'0 0.0
2017-Sep-21 18:00N 29°36' W 090°40'0 0.5
2017-Sep-21 17:30N 29°36' W 090°40'3 5.4
2017-Sep-21 17:00N 29°35' W 090°37'1 2.6
2017-Sep-21 16:30N 29°35' W 090°38'3 6.0
2017-Sep-21 16:00N 29°36' W 090°41'2 4.3
2017-Sep-21 15:30N 29°35' W 090°43'3 5.5
2017-Sep-21 15:00N 29°33' W 090°45'3 6.3
2017-Sep-21 14:30N 29°32' W 090°49'3 6.3
2017-Sep-21 14:00N 29°32' W 090°52'  
2017-Sep-18 06:03N 29°32' W 090°51'0 6.3
2017-Sep-18 05:59N 29°32' W 090°51'3 6.0
2017-Sep-18 05:31N 29°32' W 090°47'2 4.7
2017-Sep-18 05:01N 29°33' W 090°45'2 4.4
2017-Sep-18 04:30N 29°35' W 090°43'2 4.8
2017-Sep-18 04:01N 29°37' W 090°42'2 3.5
2017-Sep-18 03:30N 29°36' W 090°40'0 0.5
2017-Sep-18 03:01N 29°36' W 090°40'1 2.3
2017-Sep-18 02:30N 29°36' W 090°41'1 2.4
2017-Sep-18 02:01N 29°36' W 090°43'2 3.1
2017-Sep-18 01:31N 29°35' W 090°43'1 1.9
2017-Sep-18 01:01N 29°34' W 090°43'2 3.4
2017-Sep-18 00:30N 29°33' W 090°45'1 2.7
2017-Sep-18 00:01N 29°32' W 090°46'2 3.6
2017-Sep-17 23:30N 29°32' W 090°48'2 3.7
2017-Sep-17 23:01N 29°32' W 090°50'2 3.7
2017-Sep-17 22:27N 29°32' W 090°53'2 3.7
2017-Sep-17 21:58N 29°33' W 090°54'3 0.4
2017-Sep-17 15:31N 29°32' W 090°51'1 6.3
2017-Sep-17 15:26N 29°32' W 090°51'3 6.4
2017-Sep-17 15:01N 29°32' W 090°48'3 5.5
2017-Sep-17 14:31N 29°34' W 090°45'2 4.2
2017-Sep-17 14:01N 29°33' W 090°42'1 1.8
2017-Sep-17 13:31N 29°34' W 090°43'0 0.0
2017-Sep-17 13:00N 29°34' W 090°43'0 0.0
2017-Sep-17 12:31N 29°34' W 090°43'0 0.0
2017-Sep-17 12:01N 29°34' W 090°43'0 0.0
2017-Sep-17 11:30N 29°34' W 090°43'0 0.0
2017-Sep-17 11:00N 29°34' W 090°43'0 0.0
2017-Sep-17 10:30N 29°34' W 090°43'0 0.0
2017-Sep-17 10:00N 29°34' W 090°43'0 0.0
2017-Sep-17 09:31N 29°34' W 090°43'0 0.0
2017-Sep-17 09:01N 29°34' W 090°43'0 0.0
2017-Sep-17 08:31N 29°34' W 090°43'0 0.0
2017-Sep-17 08:00N 29°34' W 090°43'0 0.0
2017-Sep-17 07:31N 29°34' W 090°43'0 0.0
2017-Sep-17 07:01N 29°34' W 090°43'0 0.0
2017-Sep-17 06:30N 29°34' W 090°43'0 0.0
2017-Sep-17 06:01N 29°34' W 090°43'0 0.0
2017-Sep-17 05:31N 29°34' W 090°43'0 0.0
2017-Sep-17 05:00N 29°34' W 090°43'0 0.0
2017-Sep-17 04:30N 29°34' W 090°43'0 0.0
2017-Sep-17 04:01N 29°34' W 090°43'0 0.0
2017-Sep-17 03:30N 29°34' W 090°43'0 0.0
2017-Sep-17 03:00N 29°34' W 090°43'0 0.0
2017-Sep-17 02:31N 29°34' W 090°43'0 0.0
2017-Sep-17 02:01N 29°34' W 090°43'0 0.0
2017-Sep-17 01:31N 29°34' W 090°43'0 0.0
2017-Sep-17 01:00N 29°34' W 090°43'0 0.0
2017-Sep-17 00:31N 29°34' W 090°43'0 0.0
2017-Sep-17 00:01N 29°34' W 090°43'0 0.0
2017-Sep-16 23:31N 29°34' W 090°43'0 0.0
2017-Sep-16 23:00N 29°34' W 090°43'0 0.0
2017-Sep-16 22:30N 29°34' W 090°43'0 0.0
2017-Sep-16 22:00N 29°34' W 090°43'0 0.0
2017-Sep-16 21:30N 29°34' W 090°43'0 0.9
2017-Sep-16 21:00N 29°34' W 090°43'3 5.1
2017-Sep-16 20:31N 29°36' W 090°43'2 4.5
2017-Sep-16 20:01N 29°36' W 090°40'0 0.2
2017-Sep-16 19:19N 29°36' W 090°40'0 0.0
2017-Sep-16 18:57N 29°36' W 090°40'0 0.0
2017-Sep-16 18:28N 29°36' W 090°40'0 0.0
2017-Sep-16 17:50N 29°36' W 090°40'0 0.0
2017-Sep-16 17:29N 29°36' W 090°40'0 0.3
2017-Sep-16 17:01N 29°36' W 090°40'3 5.2
2017-Sep-16 16:31N 29°35' W 090°37'3 5.1
2017-Sep-16 16:00N 29°34' W 090°34'3 5.2
2017-Sep-16 15:30N 29°34' W 090°31'4 0.2
2017-Sep-15 22:27N 29°33' W 090°26'3 6.0
2017-Sep-15 22:00N 29°34' W 090°29'3 6.0
2017-Sep-15 21:30N 29°34' W 090°33'3 5.7
2017-Sep-15 21:00N 29°35' W 090°36'3 5.4
2017-Sep-15 20:29N 29°36' W 090°39'3 5.2
2017-Sep-15 20:00N 29°37' W 090°41'2 4.3
2017-Sep-15 19:30N 29°35' W 090°43'2 3.3
2017-Sep-15 19:00N 29°33' W 090°42'1 1.9
2017-Sep-15 18:30N 29°34' W 090°43'0 0.3
2017-Sep-15 18:00N 29°34' W 090°43'2 3.1
2017-Sep-15 17:30N 29°33' W 090°42'0 0.0
2017-Sep-15 17:00N 29°33' W 090°42'0 0.0
2017-Sep-15 16:30N 29°33' W 090°42'0 0.0
2017-Sep-15 16:01N 29°33' W 090°42'0 0.0
2017-Sep-15 15:31N 29°33' W 090°42'0 0.0
2017-Sep-15 15:01N 29°33' W 090°42'0 0.0
2017-Sep-15 14:31N 29°33' W 090°42'0 0.0
2017-Sep-15 14:01N 29°33' W 090°42'0 0.0
2017-Sep-15 13:30N 29°33' W 090°42'0 0.0
2017-Sep-15 13:01N 29°33' W 090°42'0 0.0
2017-Sep-15 12:30N 29°33' W 090°42'0 0.0
2017-Sep-15 12:00N 29°33' W 090°42'0 0.0
2017-Sep-15 11:30N 29°33' W 090°42'0 0.0
2017-Sep-15 11:00N 29°33' W 090°42'0 0.0
2017-Sep-15 10:30N 29°33' W 090°42'0 0.0
2017-Sep-15 10:00N 29°33' W 090°42'0 0.0
2017-Sep-15 09:30N 29°33' W 090°42'0 0.0
2017-Sep-15 09:00N 29°33' W 090°42'0 0.0
2017-Sep-15 08:30N 29°33' W 090°42'0 0.0
2017-Sep-15 08:00N 29°33' W 090°42'0 0.0
2017-Sep-15 07:30N 29°33' W 090°42'0 0.0
2017-Sep-15 07:00N 29°33' W 090°42'0 0.0
2017-Sep-15 06:30N 29°33' W 090°42'0 0.0
2017-Sep-15 06:00N 29°33' W 090°42'0 0.0
2017-Sep-15 05:30N 29°33' W 090°42'0 0.0
2017-Sep-15 05:00N 29°33' W 090°42'0 0.0
2017-Sep-15 04:30N 29°33' W 090°42'0 0.0
2017-Sep-15 04:00N 29°33' W 090°42'1 1.1
2017-Sep-15 03:31N 29°33' W 090°42'2 4.5
2017-Sep-15 03:00N 29°35' W 090°43'2 4.0
2017-Sep-15 02:30N 29°37' W 090°42'2 4.6
2017-Sep-15 02:00N 29°36' W 090°40'0 0.0
2017-Sep-15 01:30N 29°36' W 090°40'0 0.0
2017-Sep-15 01:01N 29°36' W 090°40'0 0.0
2017-Sep-15 00:30N 29°36' W 090°40'2 4.4
2017-Sep-15 00:00N 29°37' W 090°42'3 5.6
2017-Sep-14 23:30N 29°34' W 090°43'2 3.6
2017-Sep-14 23:00N 29°32' W 090°42'3 6.4
2017-Sep-14 22:30N 29°29' W 090°43'3 6.1
2017-Sep-14 22:00N 29°26' W 090°43'6 2.5
2017-Sep-14 19:31N 29°25' W 090°50'0 3.7
2017-Sep-14 19:30N 29°25' W 090°50'  

Dump ship's entire track history